createdAt,value
2023-05-18T00:01:04.310Z,8.01
2023-05-18T00:03:55.143Z,7.97
2023-05-18T00:06:41.778Z,8.02
2023-05-18T00:09:30.821Z,8.12
2023-05-18T00:12:17.678Z,8.01
2023-05-18T00:15:07.552Z,8.03
2023-05-18T00:17:54.493Z,7.96
2023-05-18T00:20:41.512Z,8.11
2023-05-18T00:23:29.844Z,8.00
2023-05-18T00:26:18.090Z,7.97
2023-05-18T00:29:07.492Z,7.88
2023-05-18T00:31:56.820Z,8.14
2023-05-18T00:34:44.270Z,8.12
2023-05-18T00:37:33.126Z,8.09
2023-05-18T00:40:22.549Z,7.91
2023-05-18T00:43:14.347Z,7.92
2023-05-18T00:46:03.150Z,7.80
2023-05-18T00:48:57.233Z,7.85
2023-05-18T00:51:45.072Z,7.72
2023-05-18T00:54:33.442Z,7.53
2023-05-18T00:57:20.376Z,7.56
2023-05-18T01:00:10.971Z,7.47
2023-05-18T01:03:00.660Z,7.22
2023-05-18T01:05:50.385Z,7.42
2023-05-18T01:08:38.411Z,7.49
2023-05-18T01:11:31.591Z,7.52
2023-05-18T01:14:27.506Z,7.34
2023-05-18T01:17:33.728Z,7.31
2023-05-18T01:20:38.092Z,7.12
2023-05-18T01:23:55.701Z,7.12
2023-05-18T01:26:45.450Z,7.17
2023-05-18T01:29:32.492Z,6.89
2023-05-18T01:32:20.437Z,7.11
2023-05-18T01:35:07.801Z,7.24
2023-05-18T01:37:57.072Z,7.30
2023-05-18T01:40:53.696Z,7.38
2023-05-18T01:43:51.156Z,7.32
2023-05-18T01:46:44.711Z,7.11
2023-05-18T01:49:36.987Z,7.01
2023-05-18T01:52:33.817Z,7.09
2023-05-18T01:55:23.104Z,6.97
2023-05-18T01:58:12.409Z,6.93
2023-05-18T02:01:01.272Z,6.84
2023-05-18T02:03:47.933Z,6.82
2023-05-18T02:06:34.897Z,6.87
2023-05-18T02:09:22.192Z,6.86
2023-05-18T02:12:10.705Z,6.80
2023-05-18T02:14:58.531Z,6.77
2023-05-18T02:17:47.569Z,6.68
2023-05-18T02:20:34.600Z,6.56
2023-05-18T02:23:21.383Z,6.51
2023-05-18T02:26:08.341Z,6.67
2023-05-18T02:28:55.286Z,6.55
2023-05-18T02:31:42.223Z,6.65
2023-05-18T02:34:33.057Z,6.52
2023-05-18T02:37:20.241Z,6.49
2023-05-18T02:40:10.841Z,6.41
2023-05-18T02:42:57.487Z,6.45
2023-05-18T02:45:45.415Z,6.43
2023-05-18T02:48:32.346Z,6.43
2023-05-18T02:51:21.773Z,6.43
2023-05-18T02:54:08.809Z,6.19
2023-05-18T02:56:58.935Z,6.42
2023-05-18T03:00:10.310Z,6.38
2023-05-18T03:02:57.898Z,6.36
2023-05-18T03:05:44.761Z,6.58
2023-05-18T03:08:37.473Z,6.69
2023-05-18T03:11:24.958Z,6.53
2023-05-18T03:14:11.772Z,6.56
2023-05-18T03:16:58.591Z,6.61
2023-05-18T03:19:45.555Z,6.60
2023-05-18T03:22:32.881Z,6.67
2023-05-18T03:25:22.668Z,6.66
2023-05-18T03:28:09.698Z,6.67
2023-05-18T03:30:56.667Z,6.69
2023-05-18T03:33:43.436Z,6.76
2023-05-18T03:36:30.294Z,6.88
2023-05-18T03:39:17.276Z,7.05
2023-05-18T03:42:05.571Z,7.08
2023-05-18T03:44:52.156Z,7.15
2023-05-18T03:47:39.806Z,7.06
2023-05-18T03:50:26.650Z,7.10
2023-05-18T03:53:14.007Z,7.21
2023-05-18T03:56:00.829Z,7.30
2023-05-18T03:58:49.208Z,7.22
2023-05-18T04:01:36.338Z,7.27
2023-05-18T04:04:23.998Z,7.34
2023-05-18T04:07:10.961Z,7.43
2023-05-18T04:09:58.165Z,7.53
2023-05-18T04:12:45.302Z,7.65
2023-05-18T04:15:33.844Z,7.76
2023-05-18T04:18:21.186Z,7.95
2023-05-18T04:21:08.117Z,8.13
2023-05-18T04:23:54.941Z,8.59
2023-05-18T04:26:42.543Z,8.53
2023-05-18T04:29:30.056Z,8.41
2023-05-18T04:32:19.125Z,8.54
2023-05-18T04:35:06.678Z,8.56
2023-05-18T04:37:54.733Z,8.63
2023-05-18T04:40:42.917Z,8.75
2023-05-18T04:43:36.710Z,8.67
2023-05-18T04:46:23.978Z,8.82
2023-05-18T04:49:15.112Z,8.85
2023-05-18T04:52:01.784Z,8.88
2023-05-18T04:54:48.845Z,9.02
2023-05-18T04:57:35.710Z,9.32
2023-05-18T05:00:24.879Z,10.00
2023-05-18T05:03:18.860Z,10.49
2023-05-18T05:06:10.181Z,11.07
2023-05-18T05:08:59.589Z,11.43
2023-05-18T05:11:46.747Z,11.68
2023-05-18T05:14:33.508Z,12.00
2023-05-18T05:17:20.330Z,12.16
2023-05-18T05:20:08.125Z,12.31
2023-05-18T05:22:59.295Z,12.56
2023-05-18T05:25:47.176Z,12.95
2023-05-18T05:28:34.270Z,12.63
2023-05-18T05:31:23.319Z,12.93
2023-05-18T05:34:28.586Z,12.96
2023-05-18T05:37:17.986Z,12.89
2023-05-18T05:40:13.227Z,13.07
2023-05-18T05:43:03.693Z,13.11
2023-05-18T05:45:50.947Z,13.28
2023-05-18T05:48:40.788Z,13.18
2023-05-18T05:51:29.919Z,13.04
2023-05-18T05:54:37.089Z,13.20
2023-05-18T05:57:28.123Z,13.44
2023-05-18T06:00:15.337Z,13.20
2023-05-18T06:03:10.604Z,13.51
2023-05-18T06:06:04.917Z,13.52
2023-05-18T06:08:52.037Z,14.05
2023-05-18T06:11:41.830Z,14.26
2023-05-18T06:14:32.750Z,14.29
2023-05-18T06:17:19.994Z,14.19
2023-05-18T06:20:10.312Z,14.39
2023-05-18T06:23:12.197Z,14.66
2023-05-18T06:26:10.026Z,14.77
2023-05-18T06:29:11.531Z,14.74
2023-05-18T06:32:29.793Z,14.31
2023-05-18T06:35:20.013Z,13.98
2023-05-18T06:38:09.998Z,14.39
2023-05-18T06:40:59.214Z,14.01
2023-05-18T06:43:46.056Z,14.71
2023-05-18T06:46:44.859Z,14.68
2023-05-18T06:49:40.153Z,14.82
2023-05-18T06:52:27.313Z,14.73
2023-05-18T06:55:21.816Z,14.26
2023-05-18T06:58:13.292Z,14.41
2023-05-18T07:01:06.425Z,14.41
2023-05-18T07:03:59.055Z,14.43
2023-05-18T07:06:53.429Z,14.25
2023-05-18T07:09:45.206Z,14.53
2023-05-18T07:12:39.636Z,14.84
2023-05-18T07:15:40.004Z,14.97
2023-05-18T07:18:46.998Z,14.90
2023-05-18T07:21:36.253Z,15.08
2023-05-18T07:24:27.131Z,15.14
2023-05-18T07:27:13.975Z,14.95
2023-05-18T07:30:04.110Z,15.23
2023-05-18T07:32:58.214Z,14.68
2023-05-18T07:35:48.907Z,14.84
2023-05-18T07:38:35.634Z,15.11
2023-05-18T07:41:39.039Z,14.71
2023-05-18T07:44:28.886Z,14.81
2023-05-18T07:47:17.946Z,14.78
2023-05-18T07:50:06.147Z,14.87
2023-05-18T07:52:54.464Z,15.21
2023-05-18T07:55:42.488Z,15.24
2023-05-18T07:58:37.866Z,15.12
2023-05-18T08:01:30.010Z,14.94
2023-05-18T08:04:18.688Z,14.88
2023-05-18T08:07:09.781Z,15.01
2023-05-18T08:09:58.132Z,15.07
2023-05-18T08:12:50.075Z,15.09
2023-05-18T08:15:42.313Z,15.30
2023-05-18T08:18:30.478Z,15.02
2023-05-18T08:21:19.064Z,15.28
2023-05-18T08:24:13.655Z,15.58
2023-05-18T08:27:02.471Z,15.77
2023-05-18T08:29:53.966Z,15.49
2023-05-18T08:32:46.058Z,15.52
2023-05-18T08:35:33.879Z,15.76
2023-05-18T08:38:21.458Z,15.61
2023-05-18T08:41:28.817Z,15.93
2023-05-18T08:44:24.348Z,15.68
2023-05-18T08:47:11.886Z,15.73
2023-05-18T08:50:13.653Z,15.58
2023-05-18T08:53:11.747Z,15.75
2023-05-18T08:56:03.736Z,15.99
2023-05-18T08:59:03.792Z,16.28
2023-05-18T09:01:52.731Z,16.44
2023-05-18T09:04:40.147Z,16.37
2023-05-18T09:07:30.618Z,16.37
2023-05-18T09:10:17.374Z,16.44
2023-05-18T09:13:06.106Z,16.44
2023-05-18T09:15:52.734Z,16.65
2023-05-18T09:18:39.850Z,17.13
2023-05-18T09:21:26.457Z,17.58
2023-05-18T09:24:21.358Z,18.02
2023-05-18T09:27:11.959Z,18.51
2023-05-18T09:30:00.142Z,18.58
2023-05-18T09:32:48.744Z,18.61
2023-05-18T09:35:40.359Z,18.76
2023-05-18T09:38:30.334Z,19.10
2023-05-18T09:41:19.517Z,18.97
2023-05-18T09:44:14.600Z,18.61
2023-05-18T09:47:01.244Z,18.84
2023-05-18T09:49:50.334Z,18.68
2023-05-18T09:52:42.173Z,19.07
2023-05-18T09:55:31.425Z,19.29
2023-05-18T09:58:22.129Z,19.15
2023-05-18T10:01:08.900Z,18.71
2023-05-18T10:04:13.317Z,18.84
2023-05-18T10:07:06.014Z,18.48
2023-05-18T10:10:09.150Z,18.04
2023-05-18T10:12:58.649Z,17.55
2023-05-18T10:16:01.744Z,17.93
2023-05-18T10:18:53.888Z,17.69
2023-05-18T10:21:44.500Z,17.81
2023-05-18T10:24:36.418Z,17.67
2023-05-18T10:27:29.221Z,17.68
2023-05-18T10:30:17.706Z,17.44
2023-05-18T10:33:14.066Z,17.26
2023-05-18T10:36:05.385Z,17.17
2023-05-18T10:38:53.149Z,16.95
2023-05-18T10:41:46.434Z,17.21
2023-05-18T10:44:33.571Z,17.39
2023-05-18T10:47:24.176Z,17.95
2023-05-18T10:50:12.694Z,18.47
2023-05-18T10:53:00.851Z,18.68
2023-05-18T10:55:53.421Z,17.92
2023-05-18T10:58:41.388Z,18.53
2023-05-18T11:01:28.329Z,18.76
2023-05-18T11:04:15.750Z,17.92
2023-05-18T11:07:09.161Z,18.82
2023-05-18T11:09:55.818Z,18.90
2023-05-18T11:12:45.523Z,18.46
2023-05-18T11:16:21.794Z,18.72
2023-05-18T11:19:12.443Z,18.63
2023-05-18T11:21:59.287Z,18.43
2023-05-18T11:24:52.056Z,18.20
2023-05-18T11:27:39.424Z,18.07
2023-05-18T11:30:30.304Z,18.35
2023-05-18T11:33:25.857Z,17.95
2023-05-18T11:36:16.971Z,17.86
2023-05-18T11:39:07.957Z,17.32
2023-05-18T11:42:02.578Z,17.55
2023-05-18T11:44:54.054Z,17.84
2023-05-18T11:47:41.943Z,18.17
2023-05-18T11:50:33.384Z,18.62
2023-05-18T11:53:25.148Z,18.72
2023-05-18T11:56:14.173Z,19.01
2023-05-18T11:59:17.515Z,19.30
2023-05-18T12:02:05.633Z,19.48
2023-05-18T12:04:54.581Z,19.62
2023-05-18T12:07:42.519Z,19.31
2023-05-18T12:10:29.970Z,19.14
2023-05-18T12:13:20.183Z,18.70
2023-05-18T12:16:12.205Z,18.56
2023-05-18T12:19:02.385Z,18.62
2023-05-18T12:21:49.336Z,19.03
2023-05-18T12:24:38.407Z,19.42
2023-05-18T12:27:27.445Z,19.36
2023-05-18T12:30:18.669Z,19.66
2023-05-18T12:33:09.414Z,19.48
2023-05-18T12:35:56.574Z,19.40
2023-05-18T12:38:43.630Z,19.04
2023-05-18T12:41:30.054Z,18.88
2023-05-18T12:44:17.122Z,18.65
2023-05-18T12:47:05.517Z,19.13
2023-05-18T12:49:53.606Z,19.32
2023-05-18T12:52:41.303Z,19.18
2023-05-18T12:55:28.510Z,19.03
2023-05-18T12:58:19.202Z,18.91
2023-05-18T13:01:11.209Z,18.82
2023-05-18T13:03:59.438Z,18.81
2023-05-18T13:06:50.731Z,18.65
2023-05-18T13:09:39.933Z,18.75
2023-05-18T13:12:44.319Z,19.03
2023-05-18T13:15:39.432Z,19.23
2023-05-18T13:18:27.340Z,19.27
2023-05-18T13:21:41.754Z,19.09
2023-05-18T13:24:32.455Z,18.77
2023-05-18T13:27:23.124Z,18.71
2023-05-18T13:30:17.742Z,18.57
2023-05-18T13:33:08.397Z,18.73
2023-05-18T13:35:56.041Z,18.88
2023-05-18T13:38:47.167Z,19.07
2023-05-18T13:41:42.281Z,19.35
2023-05-18T13:44:28.864Z,18.87
2023-05-18T13:47:18.003Z,18.95
2023-05-18T13:50:04.894Z,18.92
2023-05-18T13:52:51.790Z,18.69
2023-05-18T13:55:38.798Z,18.93
2023-05-18T13:58:29.569Z,19.26
2023-05-18T14:01:19.801Z,19.11
2023-05-18T14:04:06.582Z,19.67
2023-05-18T14:06:56.001Z,19.87
2023-05-18T14:09:42.665Z,19.67
2023-05-18T14:12:29.629Z,19.79
2023-05-18T14:15:20.715Z,20.06
2023-05-18T14:18:07.980Z,20.11
2023-05-18T14:20:54.983Z,19.85
2023-05-18T14:23:43.706Z,19.50
2023-05-18T14:26:32.671Z,19.30
2023-05-18T14:29:19.786Z,18.34
2023-05-18T14:32:12.114Z,18.57
2023-05-18T14:34:58.945Z,18.96
2023-05-18T14:37:45.658Z,19.05
2023-05-18T14:40:32.809Z,19.35
2023-05-18T14:43:19.730Z,19.57
2023-05-18T14:46:11.479Z,20.00
2023-05-18T14:49:02.452Z,19.98
2023-05-18T14:51:51.628Z,19.98
2023-05-18T14:54:38.150Z,20.01
2023-05-18T14:57:27.595Z,19.77
2023-05-18T15:00:18.526Z,19.64
2023-05-18T15:03:06.034Z,19.19
2023-05-18T15:05:58.535Z,19.11
2023-05-18T15:08:53.610Z,19.17
2023-05-18T15:11:40.208Z,19.26
2023-05-18T15:14:27.173Z,19.57
2023-05-18T15:17:18.063Z,19.55
2023-05-18T15:20:05.592Z,19.83
2023-05-18T15:22:56.250Z,19.98
2023-05-18T15:25:43.124Z,19.68
2023-05-18T15:28:35.039Z,19.67
2023-05-18T15:31:23.811Z,19.76
2023-05-18T15:34:10.806Z,19.72
2023-05-18T15:36:58.064Z,19.98
2023-05-18T15:39:45.921Z,19.81
2023-05-18T15:42:33.833Z,19.91
2023-05-18T15:45:22.886Z,20.09
2023-05-18T15:48:09.614Z,20.08
2023-05-18T15:50:58.905Z,19.56
2023-05-18T15:53:49.249Z,19.63
2023-05-18T15:56:37.534Z,19.71
2023-05-18T15:59:27.100Z,19.68
2023-05-18T16:02:15.845Z,19.70
2023-05-18T16:05:02.470Z,19.52
2023-05-18T16:07:49.305Z,19.33
2023-05-18T16:10:38.513Z,19.38
2023-05-18T16:13:28.083Z,19.33
2023-05-18T16:16:17.497Z,19.21
2023-05-18T16:19:10.487Z,19.19
2023-05-18T16:21:57.435Z,18.77
2023-05-18T16:24:47.252Z,18.59
2023-05-18T16:27:33.980Z,18.56
2023-05-18T16:30:24.403Z,18.51
2023-05-18T16:33:12.147Z,18.41
2023-05-18T16:36:08.848Z,18.50
2023-05-18T16:38:58.280Z,18.47
2023-05-18T16:41:49.071Z,18.32
2023-05-18T16:44:36.810Z,18.30
2023-05-18T16:47:33.440Z,18.13
2023-05-18T16:50:22.432Z,17.96
2023-05-18T16:53:11.887Z,17.86
2023-05-18T16:56:06.577Z,17.67
2023-05-18T16:58:53.923Z,17.80
2023-05-18T17:01:41.099Z,17.86
2023-05-18T17:04:32.108Z,17.75
2023-05-18T17:07:18.969Z,17.58
2023-05-18T17:10:12.779Z,17.55
2023-05-18T17:13:02.649Z,17.40
2023-05-18T17:15:54.985Z,17.23
2023-05-18T17:18:41.947Z,16.96
2023-05-18T17:21:32.624Z,16.86
2023-05-18T17:24:24.055Z,16.71
2023-05-18T17:27:10.703Z,16.62
2023-05-18T17:30:00.461Z,16.58
2023-05-18T17:32:52.466Z,16.74
2023-05-18T17:35:39.602Z,16.57
2023-05-18T17:38:30.365Z,16.48
2023-05-18T17:41:17.069Z,16.42
2023-05-18T17:44:04.079Z,16.49
2023-05-18T17:46:53.558Z,16.42
2023-05-18T17:49:40.734Z,16.37
2023-05-18T17:52:27.617Z,16.38
2023-05-18T17:55:16.170Z,16.34
2023-05-18T17:58:07.377Z,16.31
2023-05-18T18:00:56.226Z,16.18
2023-05-18T18:03:43.206Z,16.15
2023-05-18T18:06:32.478Z,16.07
2023-05-18T18:09:18.890Z,16.01
2023-05-18T18:12:12.526Z,15.99
2023-05-18T18:14:59.147Z,15.90
2023-05-18T18:17:45.995Z,15.74
2023-05-18T18:20:36.810Z,15.66
2023-05-18T18:23:27.883Z,15.65
2023-05-18T18:26:14.767Z,15.66
2023-05-18T18:29:03.099Z,15.57
2023-05-18T18:31:49.664Z,15.42
2023-05-18T18:34:39.467Z,15.33
2023-05-18T18:37:38.026Z,15.17
2023-05-18T18:40:25.129Z,15.08
2023-05-18T18:43:14.164Z,15.00
2023-05-18T18:46:07.279Z,14.92
2023-05-18T18:48:54.264Z,14.73
2023-05-18T18:51:45.678Z,14.63
2023-05-18T18:54:34.454Z,14.90
2023-05-18T18:57:23.262Z,14.70
2023-05-18T19:00:22.334Z,14.64
2023-05-18T19:03:18.140Z,14.57
2023-05-18T19:06:07.453Z,14.54
2023-05-18T19:08:58.336Z,14.61
2023-05-18T19:11:45.180Z,14.61
2023-05-18T19:14:31.771Z,14.63
2023-05-18T19:17:18.681Z,14.74
2023-05-18T19:20:13.126Z,14.84
2023-05-18T19:23:00.024Z,14.93
2023-05-18T19:25:46.865Z,14.95
2023-05-18T19:28:36.084Z,14.97
2023-05-18T19:31:22.669Z,15.10
2023-05-18T19:34:11.972Z,14.98
2023-05-18T19:37:03.183Z,14.98
2023-05-18T19:39:52.128Z,14.76
2023-05-18T19:42:41.133Z,14.75
2023-05-18T19:45:28.273Z,14.83
2023-05-18T19:48:18.442Z,14.69
2023-05-18T19:51:06.397Z,14.70
2023-05-18T19:53:59.436Z,14.73
2023-05-18T19:56:45.981Z,14.64
2023-05-18T19:59:32.859Z,14.57
2023-05-18T20:02:22.119Z,14.63
2023-05-18T20:05:15.470Z,14.54
2023-05-18T20:08:03.062Z,14.34
2023-05-18T20:10:54.693Z,14.38
2023-05-18T20:13:51.358Z,14.26
2023-05-18T20:16:42.529Z,14.20
2023-05-18T20:19:31.488Z,14.20
2023-05-18T20:22:18.722Z,14.25
2023-05-18T20:25:15.627Z,14.23
2023-05-18T20:28:08.524Z,13.95
2023-05-18T20:31:00.606Z,14.09
2023-05-18T20:33:48.247Z,13.98
2023-05-18T20:36:40.509Z,14.03
2023-05-18T20:39:30.217Z,14.08
2023-05-18T20:42:16.792Z,14.00
2023-05-18T20:45:07.849Z,13.93
2023-05-18T20:48:03.188Z,14.00
2023-05-18T20:50:49.945Z,13.91
2023-05-18T20:53:36.826Z,13.82
2023-05-18T20:56:31.116Z,13.68
2023-05-18T20:59:28.306Z,13.59
2023-05-18T21:02:27.710Z,13.69
2023-05-18T21:05:18.971Z,13.69
2023-05-18T21:08:06.182Z,13.50
2023-05-18T21:10:53.243Z,13.50
2023-05-18T21:13:39.966Z,13.66
2023-05-18T21:16:27.709Z,13.42
2023-05-18T21:19:19.492Z,13.40
2023-05-18T21:22:06.319Z,13.27
2023-05-18T21:24:54.887Z,13.09
2023-05-18T21:27:41.479Z,13.02
2023-05-18T21:30:28.312Z,12.92
2023-05-18T21:33:17.461Z,12.85
2023-05-18T21:36:09.204Z,12.69
2023-05-18T21:38:56.343Z,12.53
2023-05-18T21:41:45.318Z,12.58
2023-05-18T21:44:35.307Z,12.48
2023-05-18T21:47:24.272Z,12.44
2023-05-18T21:50:16.561Z,12.41
2023-05-18T21:53:09.530Z,12.40
2023-05-18T21:56:01.647Z,12.35
2023-05-18T21:58:48.059Z,12.42
2023-05-18T22:01:35.163Z,12.38
2023-05-18T22:04:22.312Z,12.26
2023-05-18T22:07:09.909Z,12.07
2023-05-18T22:09:58.118Z,12.21
2023-05-18T22:12:45.077Z,12.08
2023-05-18T22:15:32.894Z,11.95
2023-05-18T22:18:19.651Z,11.78
2023-05-18T22:21:06.670Z,11.71
2023-05-18T22:23:54.535Z,11.63
2023-05-18T22:26:44.818Z,11.60
2023-05-18T22:29:31.418Z,11.66
2023-05-18T22:32:21.093Z,11.64
2023-05-18T22:35:10.740Z,11.54
2023-05-18T22:37:59.595Z,11.35
2023-05-18T22:40:46.506Z,11.38
2023-05-18T22:43:34.617Z,11.24
2023-05-18T22:46:21.558Z,11.19
2023-05-18T22:49:08.411Z,10.94
2023-05-18T22:51:54.893Z,10.80
2023-05-18T22:54:41.732Z,10.74
2023-05-18T22:57:28.594Z,10.64
2023-05-18T23:00:17.390Z,10.60
2023-05-18T23:03:04.137Z,10.61
2023-05-18T23:05:50.999Z,10.61
2023-05-18T23:08:37.824Z,10.48
2023-05-18T23:11:25.607Z,10.42
2023-05-18T23:14:12.193Z,10.38
2023-05-18T23:17:00.408Z,10.42
2023-05-18T23:19:48.434Z,10.29
2023-05-18T23:22:35.840Z,10.11
2023-05-18T23:25:22.847Z,10.06
2023-05-18T23:28:09.273Z,10.05
2023-05-18T23:30:56.122Z,10.00
2023-05-18T23:33:45.261Z,9.90
2023-05-18T23:36:35.097Z,9.96
2023-05-18T23:39:23.239Z,10.01
2023-05-18T23:42:10.901Z,9.79
2023-05-18T23:44:57.989Z,9.77
2023-05-18T23:47:46.325Z,9.60
2023-05-18T23:50:34.913Z,9.69
2023-05-18T23:53:23.436Z,9.61
2023-05-18T23:56:12.397Z,9.52
2023-05-18T23:59:01.640Z,9.58
